sensor_id;sensor_type;location;lat;lon;timestamp;P1;durP1;ratioP1;P2;durP2;ratioP2
18576;SDS011;9418;52.694;13.294;2024-03-17T00:01:36;13.87;;;4.07;;
18576;SDS011;9418;52.694;13.294;2024-03-17T00:04:02;12.20;;;3.40;;
18576;SDS011;9418;52.694;13.294;2024-03-17T00:06:29;17.50;;;3.80;;
18576;SDS011;9418;52.694;13.294;2024-03-17T00:08:54;16.93;;;4.17;;
18576;SDS011;9418;52.694;13.294;2024-03-17T00:11:21;9.80;;;2.97;;
18576;SDS011;9418;52.694;13.294;2024-03-17T00:13:47;17.40;;;4.63;;
18576;SDS011;9418;52.694;13.294;2024-03-17T00:16:14;16.53;;;4.00;;
18576;SDS011;9418;52.694;13.294;2024-03-17T00:18:44;16.97;;;4.47;;
18576;SDS011;9418;52.694;13.294;2024-03-17T00:21:12;13.47;;;3.57;;
18576;SDS011;9418;52.694;13.294;2024-03-17T00:23:38;14.50;;;3.57;;
18576;SDS011;9418;52.694;13.294;2024-03-17T00:26:05;16.20;;;4.20;;
18576;SDS011;9418;52.694;13.294;2024-03-17T00:28:31;16.80;;;4.10;;
18576;SDS011;9418;52.694;13.294;2024-03-17T00:30:57;14.70;;;3.80;;
18576;SDS011;9418;52.694;13.294;2024-03-17T00:33:24;18.63;;;4.20;;
18576;SDS011;9418;52.694;13.294;2024-03-17T00:35:50;18.80;;;3.80;;
18576;SDS011;9418;52.694;13.294;2024-03-17T00:38:17;15.00;;;3.93;;
18576;SDS011;9418;52.694;13.294;2024-03-17T00:40:43;15.33;;;3.57;;
18576;SDS011;9418;52.694;13.294;2024-03-17T00:43:10;17.43;;;3.87;;
18576;SDS011;9418;52.694;13.294;2024-03-17T00:45:36;14.00;;;4.43;;
18576;SDS011;9418;52.694;13.294;2024-03-17T00:48:03;16.87;;;3.87;;
18576;SDS011;9418;52.694;13.294;2024-03-17T00:50:30;15.73;;;4.17;;
18576;SDS011;9418;52.694;13.294;2024-03-17T00:52:57;9.97;;;3.00;;
18576;SDS011;9418;52.694;13.294;2024-03-17T00:55:23;10.33;;;3.40;;
18576;SDS011;9418;52.694;13.294;2024-03-17T00:57:50;13.07;;;4.77;;
18576;SDS011;9418;52.694;13.294;2024-03-17T01:00:16;15.77;;;3.87;;
18576;SDS011;9418;52.694;13.294;2024-03-17T01:02:43;16.43;;;4.27;;
18576;SDS011;9418;52.694;13.294;2024-03-17T01:05:08;11.93;;;3.37;;
18576;SDS011;9418;52.694;13.294;2024-03-17T01:07:35;23.20;;;4.53;;
18576;SDS011;9418;52.694;13.294;2024-03-17T01:10:02;15.47;;;4.60;;
18576;SDS011;9418;52.694;13.294;2024-03-17T01:12:33;14.37;;;3.87;;
18576;SDS011;9418;52.694;13.294;2024-03-17T01:14:58;10.03;;;3.30;;
18576;SDS011;9418;52.694;13.294;2024-03-17T01:17:26;11.27;;;3.50;;
18576;SDS011;9418;52.694;13.294;2024-03-17T01:19:52;10.30;;;3.07;;
18576;SDS011;9418;52.694;13.294;2024-03-17T01:22:18;15.10;;;3.87;;
18576;SDS011;9418;52.694;13.294;2024-03-17T01:24:44;11.60;;;3.00;;
18576;SDS011;9418;52.694;13.294;2024-03-17T01:27:12;14.17;;;3.70;;
18576;SDS011;9418;52.694;13.294;2024-03-17T01:29:41;9.53;;;2.97;;
18576;SDS011;9418;52.694;13.294;2024-03-17T01:32:08;12.77;;;3.47;;
18576;SDS011;9418;52.694;13.294;2024-03-17T01:34:33;18.60;;;3.40;;
18576;SDS011;9418;52.694;13.294;2024-03-17T01:37:00;15.43;;;3.03;;
18576;SDS011;9418;52.694;13.294;2024-03-17T01:39:26;17.27;;;3.60;;
18576;SDS011;9418;52.694;13.294;2024-03-17T01:41:52;18.60;;;4.20;;
18576;SDS011;9418;52.694;13.294;2024-03-17T01:44:23;17.63;;;3.93;;
18576;SDS011;9418;52.694;13.294;2024-03-17T01:46:51;19.90;;;4.13;;
18576;SDS011;9418;52.694;13.294;2024-03-17T01:49:17;12.83;;;3.30;;
18576;SDS011;9418;52.694;13.294;2024-03-17T01:51:44;12.67;;;3.47;;
18576;SDS011;9418;52.694;13.294;2024-03-17T01:54:11;17.57;;;2.30;;
18576;SDS011;9418;52.694;13.294;2024-03-17T01:56:39;15.20;;;3.33;;
18576;SDS011;9418;52.694;13.294;2024-03-17T01:59:04;14.10;;;3.37;;
18576;SDS011;9418;52.694;13.294;2024-03-17T02:01:35;18.47;;;3.63;;
18576;SDS011;9418;52.694;13.294;2024-03-17T02:04:01;18.47;;;3.43;;
18576;SDS011;9418;52.694;13.294;2024-03-17T02:06:28;11.17;;;3.40;;
18576;SDS011;9418;52.694;13.294;2024-03-17T02:08:54;16.93;;;2.73;;
18576;SDS011;9418;52.694;13.294;2024-03-17T02:11:23;11.80;;;3.20;;
18576;SDS011;9418;52.694;13.294;2024-03-17T02:13:51;15.93;;;2.77;;
18576;SDS011;9418;52.694;13.294;2024-03-17T02:16:18;18.90;;;3.70;;
18576;SDS011;9418;52.694;13.294;2024-03-17T02:18:46;15.57;;;3.67;;
18576;SDS011;9418;52.694;13.294;2024-03-17T02:21:12;11.40;;;2.93;;
18576;SDS011;9418;52.694;13.294;2024-03-17T02:23:41;17.20;;;4.00;;
18576;SDS011;9418;52.694;13.294;2024-03-17T02:26:07;8.40;;;2.80;;
18576;SDS011;9418;52.694;13.294;2024-03-17T02:28:39;15.03;;;4.03;;
18576;SDS011;9418;52.694;13.294;2024-03-17T02:31:07;16.10;;;3.73;;
18576;SDS011;9418;52.694;13.294;2024-03-17T02:33:33;16.10;;;3.70;;
18576;SDS011;9418;52.694;13.294;2024-03-17T02:36:00;13.93;;;4.10;;
18576;SDS011;9418;52.694;13.294;2024-03-17T02:38:26;20.47;;;3.20;;
18576;SDS011;9418;52.694;13.294;2024-03-17T02:41:08;12.10;;;3.33;;
18576;SDS011;9418;52.694;13.294;2024-03-17T02:43:35;11.77;;;3.23;;
18576;SDS011;9418;52.694;13.294;2024-03-17T02:46:01;14.33;;;4.10;;
18576;SDS011;9418;52.694;13.294;2024-03-17T02:48:29;10.87;;;3.30;;
18576;SDS011;9418;52.694;13.294;2024-03-17T02:50:56;15.03;;;3.23;;
18576;SDS011;9418;52.694;13.294;2024-03-17T02:53:23;23.40;;;3.83;;
18576;SDS011;9418;52.694;13.294;2024-03-17T02:55:49;13.70;;;2.90;;
18576;SDS011;9418;52.694;13.294;2024-03-17T02:58:17;11.63;;;3.00;;
18576;SDS011;9418;52.694;13.294;2024-03-17T03:00:44;13.93;;;3.53;;
18576;SDS011;9418;52.694;13.294;2024-03-17T03:03:10;16.43;;;4.07;;
18576;SDS011;9418;52.694;13.294;2024-03-17T03:05:37;19.93;;;3.13;;
18576;SDS011;9418;52.694;13.294;2024-03-17T03:08:05;10.23;;;3.17;;
18576;SDS011;9418;52.694;13.294;2024-03-17T03:10:32;16.13;;;3.50;;
18576;SDS011;9418;52.694;13.294;2024-03-17T03:13:00;13.33;;;2.50;;
18576;SDS011;9418;52.694;13.294;2024-03-17T03:15:28;16.30;;;3.77;;
18576;SDS011;9418;52.694;13.294;2024-03-17T03:17:57;9.07;;;2.93;;
18576;SDS011;9418;52.694;13.294;2024-03-17T03:20:23;10.03;;;2.90;;
18576;SDS011;9418;52.694;13.294;2024-03-17T03:22:50;13.40;;;3.27;;
18576;SDS011;9418;52.694;13.294;2024-03-17T03:25:16;17.07;;;3.00;;
18576;SDS011;9418;52.694;13.294;2024-03-17T03:27:43;10.27;;;2.87;;
18576;SDS011;9418;52.694;13.294;2024-03-17T03:30:10;13.63;;;3.37;;
18576;SDS011;9418;52.694;13.294;2024-03-17T03:32:39;8.23;;;4.00;;
18576;SDS011;9418;52.694;13.294;2024-03-17T03:35:05;16.03;;;4.03;;
18576;SDS011;9418;52.694;13.294;2024-03-17T03:37:32;15.47;;;2.97;;
18576;SDS011;9418;52.694;13.294;2024-03-17T03:39:59;10.13;;;3.73;;
18576;SDS011;9418;52.694;13.294;2024-03-17T03:42:25;12.40;;;3.40;;
18576;SDS011;9418;52.694;13.294;2024-03-17T03:44:52;15.40;;;4.03;;
18576;SDS011;9418;52.694;13.294;2024-03-17T03:47:19;14.83;;;3.30;;
18576;SDS011;9418;52.694;13.294;2024-03-17T03:49:47;10.27;;;2.80;;
18576;SDS011;9418;52.694;13.294;2024-03-17T03:52:13;16.10;;;3.23;;
18576;SDS011;9418;52.694;13.294;2024-03-17T03:54:40;14.43;;;3.37;;
18576;SDS011;9418;52.694;13.294;2024-03-17T03:57:07;12.53;;;4.07;;
18576;SDS011;9418;52.694;13.294;2024-03-17T03:59:33;13.60;;;3.10;;
18576;SDS011;9418;52.694;13.294;2024-03-17T04:02:00;11.40;;;3.23;;
18576;SDS011;9418;52.694;13.294;2024-03-17T04:04:28;20.20;;;3.50;;
18576;SDS011;9418;52.694;13.294;2024-03-17T04:06:55;11.90;;;3.80;;
18576;SDS011;9418;52.694;13.294;2024-03-17T04:09:23;17.63;;;4.00;;
18576;SDS011;9418;52.694;13.294;2024-03-17T04:11:49;12.23;;;3.13;;
18576;SDS011;9418;52.694;13.294;2024-03-17T04:14:17;14.93;;;3.73;;
18576;SDS011;9418;52.694;13.294;2024-03-17T04:16:44;13.90;;;3.37;;
18576;SDS011;9418;52.694;13.294;2024-03-17T04:19:10;15.07;;;3.20;;
18576;SDS011;9418;52.694;13.294;2024-03-17T04:21:39;14.03;;;3.93;;
18576;SDS011;9418;52.694;13.294;2024-03-17T04:24:07;12.40;;;3.43;;
18576;SDS011;9418;52.694;13.294;2024-03-17T04:26:33;17.00;;;3.73;;
18576;SDS011;9418;52.694;13.294;2024-03-17T04:29:00;11.73;;;3.13;;
18576;SDS011;9418;52.694;13.294;2024-03-17T04:31:26;19.37;;;3.90;;
18576;SDS011;9418;52.694;13.294;2024-03-17T04:33:53;13.73;;;3.47;;
18576;SDS011;9418;52.694;13.294;2024-03-17T04:36:19;12.83;;;3.60;;
18576;SDS011;9418;52.694;13.294;2024-03-17T04:38:47;11.93;;;3.50;;
18576;SDS011;9418;52.694;13.294;2024-03-17T04:41:16;20.10;;;3.10;;
18576;SDS011;9418;52.694;13.294;2024-03-17T04:43:42;13.17;;;3.47;;
18576;SDS011;9418;52.694;13.294;2024-03-17T04:46:09;13.87;;;3.03;;
18576;SDS011;9418;52.694;13.294;2024-03-17T04:48:36;14.03;;;3.50;;
18576;SDS011;9418;52.694;13.294;2024-03-17T04:51:03;17.13;;;3.50;;
18576;SDS011;9418;52.694;13.294;2024-03-17T04:53:30;15.37;;;4.03;;
18576;SDS011;9418;52.694;13.294;2024-03-17T04:55:58;18.27;;;3.60;;
18576;SDS011;9418;52.694;13.294;2024-03-17T04:58:26;15.97;;;3.43;;
18576;SDS011;9418;52.694;13.294;2024-03-17T05:00:52;23.20;;;4.30;;
18576;SDS011;9418;52.694;13.294;2024-03-17T05:03:19;12.53;;;3.40;;
18576;SDS011;9418;52.694;13.294;2024-03-17T05:05:46;7.90;;;2.87;;
18576;SDS011;9418;52.694;13.294;2024-03-17T05:08:12;16.47;;;3.57;;
18576;SDS011;9418;52.694;13.294;2024-03-17T05:10:39;16.30;;;3.40;;
18576;SDS011;9418;52.694;13.294;2024-03-17T05:13:05;10.77;;;3.50;;
18576;SDS011;9418;52.694;13.294;2024-03-17T05:15:33;14.83;;;4.20;;
18576;SDS011;9418;52.694;13.294;2024-03-17T05:18:02;12.20;;;3.30;;
18576;SDS011;9418;52.694;13.294;2024-03-17T05:20:29;13.40;;;3.63;;
18576;SDS011;9418;52.694;13.294;2024-03-17T05:22:56;12.73;;;3.33;;
18576;SDS011;9418;52.694;13.294;2024-03-17T05:25:22;13.43;;;3.00;;
18576;SDS011;9418;52.694;13.294;2024-03-17T05:27:49;9.53;;;3.40;;
18576;SDS011;9418;52.694;13.294;2024-03-17T05:30:15;11.40;;;3.27;;
18576;SDS011;9418;52.694;13.294;2024-03-17T05:32:44;16.63;;;4.23;;
18576;SDS011;9418;52.694;13.294;2024-03-17T05:35:11;14.30;;;3.90;;
18576;SDS011;9418;52.694;13.294;2024-03-17T05:37:37;17.03;;;4.00;;
18576;SDS011;9418;52.694;13.294;2024-03-17T05:40:06;12.27;;;2.80;;
18576;SDS011;9418;52.694;13.294;2024-03-17T05:42:37;19.20;;;3.47;;
18576;SDS011;9418;52.694;13.294;2024-03-17T05:45:03;10.30;;;3.03;;
18576;SDS011;9418;52.694;13.294;2024-03-17T05:47:31;19.40;;;3.53;;
18576;SDS011;9418;52.694;13.294;2024-03-17T05:49:59;16.93;;;3.40;;
18576;SDS011;9418;52.694;13.294;2024-03-17T05:52:25;13.50;;;3.37;;
18576;SDS011;9418;52.694;13.294;2024-03-17T05:54:52;26.03;;;4.33;;
18576;SDS011;9418;52.694;13.294;2024-03-17T05:57:20;15.87;;;4.60;;
18576;SDS011;9418;52.694;13.294;2024-03-17T05:59:47;16.70;;;4.67;;
18576;SDS011;9418;52.694;13.294;2024-03-17T06:02:14;10.77;;;4.37;;
18576;SDS011;9418;52.694;13.294;2024-03-17T06:04:40;17.53;;;4.40;;
18576;SDS011;9418;52.694;13.294;2024-03-17T06:07:08;8.40;;;3.77;;
18576;SDS011;9418;52.694;13.294;2024-03-17T06:09:35;17.90;;;4.33;;
18576;SDS011;9418;52.694;13.294;2024-03-17T06:12:01;15.27;;;3.97;;
18576;SDS011;9418;52.694;13.294;2024-03-17T06:14:28;14.80;;;3.50;;
18576;SDS011;9418;52.694;13.294;2024-03-17T06:16:55;13.27;;;3.40;;
18576;SDS011;9418;52.694;13.294;2024-03-17T06:19:21;18.97;;;4.60;;
18576;SDS011;9418;52.694;13.294;2024-03-17T06:21:48;12.27;;;3.60;;
18576;SDS011;9418;52.694;13.294;2024-03-17T06:24:17;15.90;;;3.50;;
18576;SDS011;9418;52.694;13.294;2024-03-17T06:26:44;12.37;;;3.50;;
18576;SDS011;9418;52.694;13.294;2024-03-17T06:29:11;15.80;;;4.00;;
18576;SDS011;9418;52.694;13.294;2024-03-17T06:31:38;18.50;;;6.47;;
18576;SDS011;9418;52.694;13.294;2024-03-17T06:34:04;16.10;;;3.63;;
18576;SDS011;9418;52.694;13.294;2024-03-17T06:36:31;21.33;;;4.00;;
18576;SDS011;9418;52.694;13.294;2024-03-17T06:38:58;19.03;;;4.63;;
18576;SDS011;9418;52.694;13.294;2024-03-17T06:41:25;15.63;;;3.20;;
18576;SDS011;9418;52.694;13.294;2024-03-17T06:43:52;14.10;;;3.80;;
18576;SDS011;9418;52.694;13.294;2024-03-17T06:46:18;14.63;;;4.33;;
18576;SDS011;9418;52.694;13.294;2024-03-17T06:48:45;14.77;;;3.93;;
18576;SDS011;9418;52.694;13.294;2024-03-17T06:51:12;21.63;;;3.80;;
18576;SDS011;9418;52.694;13.294;2024-03-17T06:53:38;10.97;;;3.83;;
18576;SDS011;9418;52.694;13.294;2024-03-17T06:56:05;21.83;;;4.40;;
18576;SDS011;9418;52.694;13.294;2024-03-17T06:58:33;17.40;;;4.80;;
18576;SDS011;9418;52.694;13.294;2024-03-17T07:01:00;14.40;;;4.33;;
18576;SDS011;9418;52.694;13.294;2024-03-17T07:03:27;14.03;;;4.37;;
18576;SDS011;9418;52.694;13.294;2024-03-17T07:05:55;9.60;;;3.63;;
18576;SDS011;9418;52.694;13.294;2024-03-17T07:08:22;12.80;;;3.47;;
18576;SDS011;9418;52.694;13.294;2024-03-17T07:10:56;15.10;;;4.03;;
18576;SDS011;9418;52.694;13.294;2024-03-17T07:13:24;20.40;;;3.33;;
18576;SDS011;9418;52.694;13.294;2024-03-17T07:15:52;15.23;;;4.17;;
18576;SDS011;9418;52.694;13.294;2024-03-17T07:18:18;9.67;;;3.20;;
18576;SDS011;9418;52.694;13.294;2024-03-17T07:20:45;20.80;;;4.07;;
18576;SDS011;9418;52.694;13.294;2024-03-17T07:23:12;9.27;;;3.37;;
18576;SDS011;9418;52.694;13.294;2024-03-17T07:25:39;9.50;;;3.10;;
18576;SDS011;9418;52.694;13.294;2024-03-17T07:28:06;14.87;;;3.90;;
18576;SDS011;9418;52.694;13.294;2024-03-17T07:30:32;21.37;;;3.67;;
18576;SDS011;9418;52.694;13.294;2024-03-17T07:33:00;10.90;;;3.43;;
18576;SDS011;9418;52.694;13.294;2024-03-17T07:35:27;11.57;;;3.47;;
18576;SDS011;9418;52.694;13.294;2024-03-17T07:37:53;15.20;;;3.93;;
18576;SDS011;9418;52.694;13.294;2024-03-17T07:40:20;10.87;;;3.93;;
18576;SDS011;9418;52.694;13.294;2024-03-17T07:42:47;12.80;;;3.57;;
18576;SDS011;9418;52.694;13.294;2024-03-17T07:45:13;10.80;;;3.30;;
18576;SDS011;9418;52.694;13.294;2024-03-17T07:47:41;14.03;;;4.20;;
18576;SDS011;9418;52.694;13.294;2024-03-17T07:50:09;13.37;;;3.47;;
18576;SDS011;9418;52.694;13.294;2024-03-17T07:52:36;16.10;;;4.10;;
18576;SDS011;9418;52.694;13.294;2024-03-17T07:55:02;11.73;;;2.87;;
18576;SDS011;9418;52.694;13.294;2024-03-17T07:57:29;12.97;;;4.17;;
18576;SDS011;9418;52.694;13.294;2024-03-17T07:59:56;22.33;;;3.83;;
18576;SDS011;9418;52.694;13.294;2024-03-17T08:02:22;8.63;;;3.70;;
18576;SDS011;9418;52.694;13.294;2024-03-17T08:04:49;11.40;;;3.37;;
18576;SDS011;9418;52.694;13.294;2024-03-17T08:07:17;13.57;;;4.37;;
18576;SDS011;9418;52.694;13.294;2024-03-17T08:09:43;13.17;;;3.43;;
18576;SDS011;9418;52.694;13.294;2024-03-17T08:12:10;15.57;;;3.30;;
18576;SDS011;9418;52.694;13.294;2024-03-17T08:14:36;13.60;;;3.90;;
18576;SDS011;9418;52.694;13.294;2024-03-17T08:17:03;14.67;;;3.13;;
18576;SDS011;9418;52.694;13.294;2024-03-17T08:19:31;12.33;;;3.10;;
18576;SDS011;9418;52.694;13.294;2024-03-17T08:21:57;12.73;;;3.07;;
18576;SDS011;9418;52.694;13.294;2024-03-17T08:24:25;8.23;;;2.47;;
18576;SDS011;9418;52.694;13.294;2024-03-17T08:26:52;11.17;;;3.13;;
18576;SDS011;9418;52.694;13.294;2024-03-17T08:29:18;16.93;;;3.03;;
18576;SDS011;9418;52.694;13.294;2024-03-17T08:31:45;11.00;;;2.90;;
18576;SDS011;9418;52.694;13.294;2024-03-17T08:34:11;11.10;;;2.70;;
18576;SDS011;9418;52.694;13.294;2024-03-17T08:36:38;10.37;;;2.63;;
18576;SDS011;9418;52.694;13.294;2024-03-17T08:39:04;12.83;;;3.03;;
18576;SDS011;9418;52.694;13.294;2024-03-17T08:41:32;9.40;;;3.20;;
18576;SDS011;9418;52.694;13.294;2024-03-17T08:43:59;14.87;;;2.97;;
18576;SDS011;9418;52.694;13.294;2024-03-17T08:46:26;11.53;;;2.90;;
18576;SDS011;9418;52.694;13.294;2024-03-17T08:48:52;6.90;;;2.63;;
18576;SDS011;9418;52.694;13.294;2024-03-17T08:51:18;6.83;;;3.00;;
18576;SDS011;9418;52.694;13.294;2024-03-17T08:53:45;10.83;;;3.27;;
18576;SDS011;9418;52.694;13.294;2024-03-17T08:56:11;10.43;;;2.87;;
18576;SDS011;9418;52.694;13.294;2024-03-17T08:58:39;8.13;;;3.00;;
18576;SDS011;9418;52.694;13.294;2024-03-17T09:01:06;13.00;;;3.20;;
18576;SDS011;9418;52.694;13.294;2024-03-17T09:03:33;10.57;;;3.00;;
18576;SDS011;9418;52.694;13.294;2024-03-17T09:06:00;14.00;;;3.27;;
18576;SDS011;9418;52.694;13.294;2024-03-17T09:08:27;9.70;;;3.00;;
18576;SDS011;9418;52.694;13.294;2024-03-17T09:10:54;9.20;;;3.10;;
18576;SDS011;9418;52.694;13.294;2024-03-17T09:13:22;11.80;;;2.67;;
18576;SDS011;9418;52.694;13.294;2024-03-17T09:15:51;19.57;;;3.10;;
18576;SDS011;9418;52.694;13.294;2024-03-17T09:18:18;11.23;;;3.23;;
18576;SDS011;9418;52.694;13.294;2024-03-17T09:20:45;10.40;;;3.07;;
18576;SDS011;9418;52.694;13.294;2024-03-17T09:23:11;11.33;;;3.30;;
18576;SDS011;9418;52.694;13.294;2024-03-17T09:25:39;10.03;;;2.90;;
18576;SDS011;9418;52.694;13.294;2024-03-17T09:28:05;7.47;;;2.77;;
18576;SDS011;9418;52.694;13.294;2024-03-17T09:30:32;6.10;;;2.87;;
18576;SDS011;9418;52.694;13.294;2024-03-17T09:33:00;19.13;;;3.47;;
18576;SDS011;9418;52.694;13.294;2024-03-17T09:35:26;9.40;;;5.10;;
18576;SDS011;9418;52.694;13.294;2024-03-17T09:37:53;10.43;;;3.00;;
18576;SDS011;9418;52.694;13.294;2024-03-17T09:40:20;12.33;;;4.00;;
18576;SDS011;9418;52.694;13.294;2024-03-17T09:42:47;12.00;;;2.53;;
18576;SDS011;9418;52.694;13.294;2024-03-17T09:45:14;9.60;;;2.93;;
18576;SDS011;9418;52.694;13.294;2024-03-17T09:47:42;5.40;;;2.63;;
18576;SDS011;9418;52.694;13.294;2024-03-17T09:50:13;14.67;;;4.90;;
18576;SDS011;9418;52.694;13.294;2024-03-17T09:52:40;15.97;;;7.10;;
18576;SDS011;9418;52.694;13.294;2024-03-17T09:55:09;17.37;;;8.10;;
18576;SDS011;9418;52.694;13.294;2024-03-17T09:57:41;10.87;;;5.43;;
18576;SDS011;9418;52.694;13.294;2024-03-17T10:00:10;6.87;;;2.70;;
18576;SDS011;9418;52.694;13.294;2024-03-17T10:02:42;7.30;;;2.57;;
18576;SDS011;9418;52.694;13.294;2024-03-17T10:05:19;5.53;;;3.20;;
18576;SDS011;9418;52.694;13.294;2024-03-17T10:07:47;4.27;;;2.40;;
18576;SDS011;9418;52.694;13.294;2024-03-17T10:10:14;7.53;;;2.63;;
18576;SDS011;9418;52.694;13.294;2024-03-17T10:12:42;9.20;;;2.30;;
18576;SDS011;9418;52.694;13.294;2024-03-17T10:15:10;6.90;;;2.50;;
18576;SDS011;9418;52.694;13.294;2024-03-17T10:17:37;7.63;;;1.80;;
18576;SDS011;9418;52.694;13.294;2024-03-17T10:20:11;9.17;;;3.07;;
18576;SDS011;9418;52.694;13.294;2024-03-17T10:22:49;6.27;;;2.23;;
18576;SDS011;9418;52.694;13.294;2024-03-17T10:25:28;9.30;;;3.10;;
18576;SDS011;9418;52.694;13.294;2024-03-17T10:27:55;14.60;;;2.60;;
18576;SDS011;9418;52.694;13.294;2024-03-17T10:30:22;7.90;;;2.47;;
18576;SDS011;9418;52.694;13.294;2024-03-17T10:32:54;3.53;;;1.87;;
18576;SDS011;9418;52.694;13.294;2024-03-17T10:35:26;6.87;;;2.30;;
18576;SDS011;9418;52.694;13.294;2024-03-17T10:37:55;12.20;;;5.30;;
18576;SDS011;9418;52.694;13.294;2024-03-17T10:40:24;12.27;;;2.70;;
18576;SDS011;9418;52.694;13.294;2024-03-17T10:42:51;15.60;;;3.90;;
18576;SDS011;9418;52.694;13.294;2024-03-17T10:45:18;8.10;;;3.03;;
18576;SDS011;9418;52.694;13.294;2024-03-17T10:47:47;9.57;;;2.40;;
18576;SDS011;9418;52.694;13.294;2024-03-17T10:50:16;7.17;;;1.60;;
18576;SDS011;9418;52.694;13.294;2024-03-17T10:52:46;7.27;;;2.30;;
18576;SDS011;9418;52.694;13.294;2024-03-17T10:55:21;4.53;;;1.97;;
18576;SDS011;9418;52.694;13.294;2024-03-17T10:57:49;6.60;;;2.33;;
18576;SDS011;9418;52.694;13.294;2024-03-17T11:00:17;9.47;;;2.20;;
18576;SDS011;9418;52.694;13.294;2024-03-17T11:02:47;9.53;;;2.73;;
18576;SDS011;9418;52.694;13.294;2024-03-17T11:05:16;19.57;;;2.57;;
18576;SDS011;9418;52.694;13.294;2024-03-17T11:07:46;7.27;;;2.50;;
18576;SDS011;9418;52.694;13.294;2024-03-17T11:10:18;10.60;;;2.90;;
18576;SDS011;9418;52.694;13.294;2024-03-17T11:12:48;7.07;;;2.10;;
18576;SDS011;9418;52.694;13.294;2024-03-17T11:15:35;8.37;;;2.30;;
18576;SDS011;9418;52.694;13.294;2024-03-17T11:18:28;8.33;;;3.03;;
18576;SDS011;9418;52.694;13.294;2024-03-17T11:20:57;9.90;;;2.23;;
18576;SDS011;9418;52.694;13.294;2024-03-17T11:23:28;13.77;;;2.00;;
18576;SDS011;9418;52.694;13.294;2024-03-17T11:25:57;5.50;;;2.23;;
18576;SDS011;9418;52.694;13.294;2024-03-17T11:34:00;8.63;;;2.50;;
18576;SDS011;9418;52.694;13.294;2024-03-17T11:39:12;13.07;;;3.30;;
18576;SDS011;9418;52.694;13.294;2024-03-17T11:41:44;12.23;;;4.17;;
18576;SDS011;9418;52.694;13.294;2024-03-17T11:44:15;7.53;;;3.33;;
18576;SDS011;9418;52.694;13.294;2024-03-17T11:46:50;7.67;;;3.13;;
18576;SDS011;9418;52.694;13.294;2024-03-17T11:49:18;5.50;;;2.17;;
18576;SDS011;9418;52.694;13.294;2024-03-17T11:51:45;6.80;;;2.50;;
18576;SDS011;9418;52.694;13.294;2024-03-17T11:54:13;6.63;;;2.47;;
18576;SDS011;9418;52.694;13.294;2024-03-17T11:56:45;3.90;;;1.87;;
18576;SDS011;9418;52.694;13.294;2024-03-17T11:59:12;5.47;;;2.80;;
18576;SDS011;9418;52.694;13.294;2024-03-17T12:01:37;8.13;;;2.10;;
18576;SDS011;9418;52.694;13.294;2024-03-17T12:04:06;4.03;;;1.90;;
18576;SDS011;9418;52.694;13.294;2024-03-17T12:06:32;11.70;;;2.37;;
18576;SDS011;9418;52.694;13.294;2024-03-17T12:09:09;6.07;;;2.40;;
18576;SDS011;9418;52.694;13.294;2024-03-17T12:11:41;8.83;;;2.00;;
18576;SDS011;9418;52.694;13.294;2024-03-17T12:14:16;7.97;;;2.07;;
18576;SDS011;9418;52.694;13.294;2024-03-17T12:16:47;6.20;;;2.63;;
18576;SDS011;9418;52.694;13.294;2024-03-17T12:19:16;4.80;;;2.33;;
18576;SDS011;9418;52.694;13.294;2024-03-17T12:21:46;7.23;;;1.80;;
18576;SDS011;9418;52.694;13.294;2024-03-17T12:24:15;4.87;;;2.20;;
18576;SDS011;9418;52.694;13.294;2024-03-17T12:26:42;8.00;;;2.00;;
18576;SDS011;9418;52.694;13.294;2024-03-17T12:29:24;3.00;;;1.90;;
18576;SDS011;9418;52.694;13.294;2024-03-17T12:31:52;3.73;;;1.60;;
18576;SDS011;9418;52.694;13.294;2024-03-17T12:34:20;7.37;;;2.57;;
18576;SDS011;9418;52.694;13.294;2024-03-17T12:36:47;5.70;;;1.97;;
18576;SDS011;9418;52.694;13.294;2024-03-17T12:39:17;4.60;;;1.70;;
18576;SDS011;9418;52.694;13.294;2024-03-17T12:41:44;5.57;;;1.63;;
18576;SDS011;9418;52.694;13.294;2024-03-17T12:44:21;10.87;;;2.97;;
18576;SDS011;9418;52.694;13.294;2024-03-17T12:46:54;4.47;;;1.93;;
18576;SDS011;9418;52.694;13.294;2024-03-17T12:49:21;4.20;;;1.93;;
18576;SDS011;9418;52.694;13.294;2024-03-17T12:51:47;4.53;;;2.00;;
18576;SDS011;9418;52.694;13.294;2024-03-17T12:54:14;7.40;;;2.30;;
18576;SDS011;9418;52.694;13.294;2024-03-17T12:56:40;3.53;;;1.77;;
18576;SDS011;9418;52.694;13.294;2024-03-17T12:59:25;6.53;;;2.30;;
18576;SDS011;9418;52.694;13.294;2024-03-17T13:02:24;4.73;;;1.50;;
18576;SDS011;9418;52.694;13.294;2024-03-17T13:07:42;9.23;;;2.10;;
18576;SDS011;9418;52.694;13.294;2024-03-17T13:10:11;3.10;;;1.47;;
18576;SDS011;9418;52.694;13.294;2024-03-17T13:12:39;4.40;;;1.50;;
18576;SDS011;9418;52.694;13.294;2024-03-17T13:15:08;5.93;;;1.90;;
18576;SDS011;9418;52.694;13.294;2024-03-17T13:17:36;5.70;;;2.10;;
18576;SDS011;9418;52.694;13.294;2024-03-17T13:20:04;6.70;;;1.77;;
18576;SDS011;9418;52.694;13.294;2024-03-17T13:22:36;5.97;;;2.43;;
18576;SDS011;9418;52.694;13.294;2024-03-17T13:25:05;3.30;;;2.20;;
18576;SDS011;9418;52.694;13.294;2024-03-17T13:27:34;3.93;;;1.53;;
18576;SDS011;9418;52.694;13.294;2024-03-17T13:30:01;3.93;;;1.57;;
18576;SDS011;9418;52.694;13.294;2024-03-17T13:32:29;5.80;;;2.10;;
18576;SDS011;9418;52.694;13.294;2024-03-17T13:34:56;6.70;;;1.40;;
18576;SDS011;9418;52.694;13.294;2024-03-17T13:37:23;2.87;;;1.67;;
18576;SDS011;9418;52.694;13.294;2024-03-17T13:39:49;3.00;;;1.30;;
18576;SDS011;9418;52.694;13.294;2024-03-17T13:42:16;3.03;;;1.43;;
18576;SDS011;9418;52.694;13.294;2024-03-17T13:44:42;5.60;;;1.57;;
18576;SDS011;9418;52.694;13.294;2024-03-17T13:47:09;5.33;;;2.20;;
18576;SDS011;9418;52.694;13.294;2024-03-17T13:49:37;2.67;;;1.43;;
18576;SDS011;9418;52.694;13.294;2024-03-17T13:52:03;1.83;;;1.50;;
18576;SDS011;9418;52.694;13.294;2024-03-17T13:54:30;2.10;;;1.47;;
18576;SDS011;9418;52.694;13.294;2024-03-17T13:56:57;5.77;;;1.70;;
18576;SDS011;9418;52.694;13.294;2024-03-17T13:59:26;4.93;;;2.03;;
18576;SDS011;9418;52.694;13.294;2024-03-17T14:01:53;4.00;;;1.80;;
18576;SDS011;9418;52.694;13.294;2024-03-17T14:04:20;3.87;;;1.30;;
18576;SDS011;9418;52.694;13.294;2024-03-17T14:06:48;3.33;;;1.97;;
18576;SDS011;9418;52.694;13.294;2024-03-17T14:09:16;5.10;;;1.57;;
18576;SDS011;9418;52.694;13.294;2024-03-17T14:11:44;2.10;;;1.60;;
18576;SDS011;9418;52.694;13.294;2024-03-17T14:14:10;1.90;;;1.30;;
18576;SDS011;9418;52.694;13.294;2024-03-17T14:16:37;2.80;;;1.77;;
18576;SDS011;9418;52.694;13.294;2024-03-17T14:19:05;4.97;;;1.50;;
18576;SDS011;9418;52.694;13.294;2024-03-17T14:21:32;2.10;;;1.37;;
18576;SDS011;9418;52.694;13.294;2024-03-17T14:24:00;4.27;;;2.77;;
18576;SDS011;9418;52.694;13.294;2024-03-17T14:26:31;2.60;;;1.67;;
18576;SDS011;9418;52.694;13.294;2024-03-17T14:28:58;4.77;;;1.90;;
18576;SDS011;9418;52.694;13.294;2024-03-17T14:31:24;2.97;;;1.67;;
18576;SDS011;9418;52.694;13.294;2024-03-17T14:33:51;5.47;;;1.87;;
18576;SDS011;9418;52.694;13.294;2024-03-17T14:36:18;3.00;;;1.60;;
18576;SDS011;9418;52.694;13.294;2024-03-17T14:38:51;3.20;;;1.60;;
18576;SDS011;9418;52.694;13.294;2024-03-17T14:41:19;1.90;;;1.17;;
18576;SDS011;9418;52.694;13.294;2024-03-17T14:43:46;2.50;;;1.40;;
18576;SDS011;9418;52.694;13.294;2024-03-17T14:46:12;1.53;;;1.20;;
18576;SDS011;9418;52.694;13.294;2024-03-17T14:48:39;2.87;;;1.37;;
18576;SDS011;9418;52.694;13.294;2024-03-17T14:51:07;1.53;;;1.40;;
18576;SDS011;9418;52.694;13.294;2024-03-17T14:53:34;3.40;;;1.20;;